sensor_id;sensor_type;location;lat;lon;timestamp;P1;durP1;ratioP1;P2;durP2;ratioP2
66874;SDS011;53784;52.630;4.896;2023-03-31T00:00:18;18.73;;;2.50;;
66874;SDS011;53784;52.630;4.896;2023-03-31T00:02:44;20.58;;;2.50;;
66874;SDS011;53784;52.630;4.896;2023-03-31T00:05:10;19.25;;;2.53;;
66874;SDS011;53784;52.630;4.896;2023-03-31T00:07:35;19.48;;;2.15;;
66874;SDS011;53784;52.630;4.896;2023-03-31T00:10:02;18.95;;;2.58;;
66874;SDS011;53784;52.630;4.896;2023-03-31T00:12:28;18.40;;;2.47;;
66874;SDS011;53784;52.630;4.896;2023-03-31T00:14:53;19.10;;;2.37;;
66874;SDS011;53784;52.630;4.896;2023-03-31T00:17:18;16.70;;;2.87;;
66874;SDS011;53784;52.630;4.896;2023-03-31T00:19:43;17.17;;;2.50;;
66874;SDS011;53784;52.630;4.896;2023-03-31T00:22:08;20.37;;;2.20;;
66874;SDS011;53784;52.630;4.896;2023-03-31T00:24:34;20.07;;;3.00;;
66874;SDS011;53784;52.630;4.896;2023-03-31T00:26:59;20.27;;;2.88;;
66874;SDS011;53784;52.630;4.896;2023-03-31T00:29:25;19.95;;;2.63;;
66874;SDS011;53784;52.630;4.896;2023-03-31T00:31:50;24.50;;;3.78;;
66874;SDS011;53784;52.630;4.896;2023-03-31T00:34:16;20.42;;;3.50;;
66874;SDS011;53784;52.630;4.896;2023-03-31T00:36:41;21.63;;;3.40;;
66874;SDS011;53784;52.630;4.896;2023-03-31T00:39:11;18.60;;;3.03;;
66874;SDS011;53784;52.630;4.896;2023-03-31T00:41:37;23.67;;;2.90;;
66874;SDS011;53784;52.630;4.896;2023-03-31T00:49:11;21.58;;;3.13;;
66874;SDS011;53784;52.630;4.896;2023-03-31T00:51:39;18.45;;;2.75;;
66874;SDS011;53784;52.630;4.896;2023-03-31T00:54:04;17.70;;;2.97;;
66874;SDS011;53784;52.630;4.896;2023-03-31T00:56:33;21.00;;;2.38;;
66874;SDS011;53784;52.630;4.896;2023-03-31T00:59:00;20.08;;;2.55;;
66874;SDS011;53784;52.630;4.896;2023-03-31T01:01:27;14.52;;;2.20;;
66874;SDS011;53784;52.630;4.896;2023-03-31T01:03:54;21.85;;;3.10;;
66874;SDS011;53784;52.630;4.896;2023-03-31T01:06:19;17.97;;;2.60;;
66874;SDS011;53784;52.630;4.896;2023-03-31T01:08:45;18.80;;;2.80;;
66874;SDS011;53784;52.630;4.896;2023-03-31T01:11:12;24.08;;;3.38;;
66874;SDS011;53784;52.630;4.896;2023-03-31T01:13:38;20.08;;;3.42;;
66874;SDS011;53784;52.630;4.896;2023-03-31T01:16:04;18.65;;;2.70;;
66874;SDS011;53784;52.630;4.896;2023-03-31T01:18:29;17.75;;;3.15;;
66874;SDS011;53784;52.630;4.896;2023-03-31T01:41:56;16.50;;;2.45;;
66874;SDS011;53784;52.630;4.896;2023-03-31T01:49:41;12.68;;;2.30;;
66874;SDS011;53784;52.630;4.896;2023-03-31T01:52:18;12.32;;;2.22;;
66874;SDS011;53784;52.630;4.896;2023-03-31T01:54:46;10.73;;;2.10;;
66874;SDS011;53784;52.630;4.896;2023-03-31T01:57:30;7.50;;;2.15;;
66874;SDS011;53784;52.630;4.896;2023-03-31T02:00:10;13.05;;;2.35;;
66874;SDS011;53784;52.630;4.896;2023-03-31T02:02:47;10.77;;;1.70;;
66874;SDS011;53784;52.630;4.896;2023-03-31T02:05:14;9.52;;;2.38;;
66874;SDS011;53784;52.630;4.896;2023-03-31T02:07:42;13.82;;;2.58;;
66874;SDS011;53784;52.630;4.896;2023-03-31T02:10:08;8.40;;;1.90;;
66874;SDS011;53784;52.630;4.896;2023-03-31T02:12:35;13.65;;;2.58;;
66874;SDS011;53784;52.630;4.896;2023-03-31T02:15:02;9.88;;;2.67;;
66874;SDS011;53784;52.630;4.896;2023-03-31T02:17:29;12.82;;;2.63;;
66874;SDS011;53784;52.630;4.896;2023-03-31T02:19:57;11.18;;;2.65;;
66874;SDS011;53784;52.630;4.896;2023-03-31T02:22:23;14.07;;;3.00;;
66874;SDS011;53784;52.630;4.896;2023-03-31T02:24:49;10.85;;;3.17;;
66874;SDS011;53784;52.630;4.896;2023-03-31T02:27:25;15.23;;;3.70;;
66874;SDS011;53784;52.630;4.896;2023-03-31T02:29:53;12.38;;;3.70;;
66874;SDS011;53784;52.630;4.896;2023-03-31T02:34:57;14.77;;;3.90;;
66874;SDS011;53784;52.630;4.896;2023-03-31T02:37:23;14.10;;;3.88;;
66874;SDS011;53784;52.630;4.896;2023-03-31T02:39:49;15.57;;;4.07;;
66874;SDS011;53784;52.630;4.896;2023-03-31T02:42:16;20.15;;;4.13;;
66874;SDS011;53784;52.630;4.896;2023-03-31T02:44:41;18.35;;;4.35;;
66874;SDS011;53784;52.630;4.896;2023-03-31T02:47:08;21.80;;;4.75;;
66874;SDS011;53784;52.630;4.896;2023-03-31T02:49:36;17.55;;;4.95;;
66874;SDS011;53784;52.630;4.896;2023-03-31T03:04:28;16.10;;;4.80;;
66874;SDS011;53784;52.630;4.896;2023-03-31T03:09:53;14.80;;;4.25;;
66874;SDS011;53784;52.630;4.896;2023-03-31T03:12:26;14.45;;;4.63;;
66874;SDS011;53784;52.630;4.896;2023-03-31T03:14:59;11.98;;;4.18;;
66874;SDS011;53784;52.630;4.896;2023-03-31T03:17:46;13.48;;;4.05;;
66874;SDS011;53784;52.630;4.896;2023-03-31T03:20:11;11.00;;;4.53;;
66874;SDS011;53784;52.630;4.896;2023-03-31T03:22:38;13.63;;;4.57;;
66874;SDS011;53784;52.630;4.896;2023-03-31T03:25:04;13.50;;;3.72;;
66874;SDS011;53784;52.630;4.896;2023-03-31T03:27:29;13.43;;;4.40;;
66874;SDS011;53784;52.630;4.896;2023-03-31T03:29:54;10.93;;;3.63;;
66874;SDS011;53784;52.630;4.896;2023-03-31T03:32:20;11.15;;;4.40;;
66874;SDS011;53784;52.630;4.896;2023-03-31T03:34:45;12.60;;;4.10;;
66874;SDS011;53784;52.630;4.896;2023-03-31T03:37:11;11.50;;;4.22;;
66874;SDS011;53784;52.630;4.896;2023-03-31T03:39:36;14.27;;;4.47;;
66874;SDS011;53784;52.630;4.896;2023-03-31T03:42:02;13.55;;;4.47;;
66874;SDS011;53784;52.630;4.896;2023-03-31T03:44:27;13.43;;;4.88;;
66874;SDS011;53784;52.630;4.896;2023-03-31T03:46:52;10.10;;;4.00;;
66874;SDS011;53784;52.630;4.896;2023-03-31T03:49:17;10.15;;;3.83;;
66874;SDS011;53784;52.630;4.896;2023-03-31T03:51:42;15.63;;;4.10;;
66874;SDS011;53784;52.630;4.896;2023-03-31T03:54:13;12.67;;;4.10;;
66874;SDS011;53784;52.630;4.896;2023-03-31T03:56:38;11.77;;;3.87;;
66874;SDS011;53784;52.630;4.896;2023-03-31T03:59:03;9.18;;;3.63;;
66874;SDS011;53784;52.630;4.896;2023-03-31T04:01:29;11.97;;;3.40;;
66874;SDS011;53784;52.630;4.896;2023-03-31T04:03:54;11.80;;;3.70;;
66874;SDS011;53784;52.630;4.896;2023-03-31T04:06:19;16.57;;;3.47;;
66874;SDS011;53784;52.630;4.896;2023-03-31T04:08:44;11.93;;;3.80;;
66874;SDS011;53784;52.630;4.896;2023-03-31T04:11:14;9.82;;;3.08;;
66874;SDS011;53784;52.630;4.896;2023-03-31T04:13:41;12.52;;;3.60;;
66874;SDS011;53784;52.630;4.896;2023-03-31T04:16:07;12.30;;;3.53;;
66874;SDS011;53784;52.630;4.896;2023-03-31T04:18:32;9.43;;;3.33;;
66874;SDS011;53784;52.630;4.896;2023-03-31T04:21:01;11.98;;;3.45;;
66874;SDS011;53784;52.630;4.896;2023-03-31T04:23:33;9.98;;;3.45;;
66874;SDS011;53784;52.630;4.896;2023-03-31T04:25:58;10.88;;;3.05;;
66874;SDS011;53784;52.630;4.896;2023-03-31T04:28:24;10.25;;;2.95;;
66874;SDS011;53784;52.630;4.896;2023-03-31T04:30:50;10.45;;;2.65;;
66874;SDS011;53784;52.630;4.896;2023-03-31T04:33:18;9.82;;;2.67;;
66874;SDS011;53784;52.630;4.896;2023-03-31T04:35:43;7.53;;;2.50;;
66874;SDS011;53784;52.630;4.896;2023-03-31T04:38:16;9.48;;;3.05;;
66874;SDS011;53784;52.630;4.896;2023-03-31T04:40:46;8.68;;;3.45;;
66874;SDS011;53784;52.630;4.896;2023-03-31T04:43:11;10.38;;;3.33;;
66874;SDS011;53784;52.630;4.896;2023-03-31T04:45:37;10.95;;;3.30;;
66874;SDS011;53784;52.630;4.896;2023-03-31T04:48:02;10.30;;;3.23;;
66874;SDS011;53784;52.630;4.896;2023-03-31T04:50:27;8.23;;;3.08;;
66874;SDS011;53784;52.630;4.896;2023-03-31T04:52:52;6.90;;;2.67;;
66874;SDS011;53784;52.630;4.896;2023-03-31T04:55:18;7.77;;;2.73;;
66874;SDS011;53784;52.630;4.896;2023-03-31T04:57:43;6.28;;;2.38;;
66874;SDS011;53784;52.630;4.896;2023-03-31T05:00:08;5.57;;;2.07;;
66874;SDS011;53784;52.630;4.896;2023-03-31T05:02:35;8.45;;;2.90;;
66874;SDS011;53784;52.630;4.896;2023-03-31T05:05:00;6.07;;;1.95;;
66874;SDS011;53784;52.630;4.896;2023-03-31T05:07:25;5.80;;;1.47;;
66874;SDS011;53784;52.630;4.896;2023-03-31T05:09:51;5.70;;;1.80;;
66874;SDS011;53784;52.630;4.896;2023-03-31T05:12:16;4.30;;;1.33;;
66874;SDS011;53784;52.630;4.896;2023-03-31T05:14:41;6.50;;;2.20;;
66874;SDS011;53784;52.630;4.896;2023-03-31T05:17:06;5.70;;;2.10;;
66874;SDS011;53784;52.630;4.896;2023-03-31T05:19:31;6.53;;;2.33;;
66874;SDS011;53784;52.630;4.896;2023-03-31T05:21:56;6.38;;;1.88;;
66874;SDS011;53784;52.630;4.896;2023-03-31T05:24:22;8.40;;;2.43;;
66874;SDS011;53784;52.630;4.896;2023-03-31T05:26:47;5.43;;;1.90;;
66874;SDS011;53784;52.630;4.896;2023-03-31T05:29:17;6.13;;;2.72;;
66874;SDS011;53784;52.630;4.896;2023-03-31T05:31:42;5.65;;;2.38;;
66874;SDS011;53784;52.630;4.896;2023-03-31T05:34:07;10.27;;;3.13;;
66874;SDS011;53784;52.630;4.896;2023-03-31T05:36:32;7.75;;;2.95;;
66874;SDS011;53784;52.630;4.896;2023-03-31T05:38:59;8.80;;;2.90;;
66874;SDS011;53784;52.630;4.896;2023-03-31T05:41:24;8.52;;;3.13;;
66874;SDS011;53784;52.630;4.896;2023-03-31T05:43:50;10.75;;;3.25;;
66874;SDS011;53784;52.630;4.896;2023-03-31T05:46:15;8.30;;;2.80;;
66874;SDS011;53784;52.630;4.896;2023-03-31T05:48:42;8.80;;;3.05;;
66874;SDS011;53784;52.630;4.896;2023-03-31T05:51:08;8.75;;;3.30;;
66874;SDS011;53784;52.630;4.896;2023-03-31T05:53:33;7.57;;;2.80;;
66874;SDS011;53784;52.630;4.896;2023-03-31T05:55:59;9.50;;;3.13;;
66874;SDS011;53784;52.630;4.896;2023-03-31T05:58:25;10.65;;;2.97;;
66874;SDS011;53784;52.630;4.896;2023-03-31T06:00:59;12.95;;;3.60;;
66874;SDS011;53784;52.630;4.896;2023-03-31T06:03:28;9.50;;;3.45;;
66874;SDS011;53784;52.630;4.896;2023-03-31T06:05:53;14.00;;;3.72;;
66874;SDS011;53784;52.630;4.896;2023-03-31T06:08:19;14.50;;;3.90;;
66874;SDS011;53784;52.630;4.896;2023-03-31T06:10:44;12.53;;;3.70;;
66874;SDS011;53784;52.630;4.896;2023-03-31T06:13:10;9.80;;;3.90;;
66874;SDS011;53784;52.630;4.896;2023-03-31T06:15:35;10.00;;;4.05;;
66874;SDS011;53784;52.630;4.896;2023-03-31T06:18:00;11.73;;;3.80;;
66874;SDS011;53784;52.630;4.896;2023-03-31T06:20:25;10.37;;;3.70;;
66874;SDS011;53784;52.630;4.896;2023-03-31T06:22:50;8.32;;;3.40;;
66874;SDS011;53784;52.630;4.896;2023-03-31T06:25:16;11.10;;;3.70;;
66874;SDS011;53784;52.630;4.896;2023-03-31T06:27:41;7.72;;;3.33;;
66874;SDS011;53784;52.630;4.896;2023-03-31T06:30:07;8.10;;;3.38;;
66874;SDS011;53784;52.630;4.896;2023-03-31T06:32:33;8.45;;;3.65;;
66874;SDS011;53784;52.630;4.896;2023-03-31T06:34:58;9.00;;;3.40;;
66874;SDS011;53784;52.630;4.896;2023-03-31T06:37:23;10.70;;;3.27;;
66874;SDS011;53784;52.630;4.896;2023-03-31T06:39:48;8.73;;;3.33;;
66874;SDS011;53784;52.630;4.896;2023-03-31T06:42:14;8.70;;;3.45;;
66874;SDS011;53784;52.630;4.896;2023-03-31T06:44:39;8.40;;;3.43;;
66874;SDS011;53784;52.630;4.896;2023-03-31T06:47:08;8.10;;;3.30;;
66874;SDS011;53784;52.630;4.896;2023-03-31T06:49:33;7.22;;;3.33;;
66874;SDS011;53784;52.630;4.896;2023-03-31T06:51:58;8.80;;;3.10;;
66874;SDS011;53784;52.630;4.896;2023-03-31T06:54:23;8.77;;;3.20;;
66874;SDS011;53784;52.630;4.896;2023-03-31T06:56:48;8.53;;;3.37;;
66874;SDS011;53784;52.630;4.896;2023-03-31T06:59:14;6.45;;;2.85;;
66874;SDS011;53784;52.630;4.896;2023-03-31T07:01:39;8.45;;;3.17;;
66874;SDS011;53784;52.630;4.896;2023-03-31T07:04:06;9.13;;;3.67;;
66874;SDS011;53784;52.630;4.896;2023-03-31T07:06:31;5.90;;;2.97;;
66874;SDS011;53784;52.630;4.896;2023-03-31T07:08:57;9.50;;;3.45;;
66874;SDS011;53784;52.630;4.896;2023-03-31T07:11:22;6.30;;;3.17;;
66874;SDS011;53784;52.630;4.896;2023-03-31T07:13:47;8.48;;;3.22;;
66874;SDS011;53784;52.630;4.896;2023-03-31T07:16:12;7.77;;;3.10;;
66874;SDS011;53784;52.630;4.896;2023-03-31T07:18:38;5.88;;;2.78;;
66874;SDS011;53784;52.630;4.896;2023-03-31T07:21:06;7.47;;;2.90;;
66874;SDS011;53784;52.630;4.896;2023-03-31T07:23:31;6.82;;;2.67;;
66874;SDS011;53784;52.630;4.896;2023-03-31T07:25:57;5.87;;;2.30;;
66874;SDS011;53784;52.630;4.896;2023-03-31T07:28:26;10.48;;;3.10;;
66874;SDS011;53784;52.630;4.896;2023-03-31T07:30:51;8.63;;;2.70;;
66874;SDS011;53784;52.630;4.896;2023-03-31T07:33:16;6.77;;;2.20;;
66874;SDS011;53784;52.630;4.896;2023-03-31T07:35:42;5.37;;;2.30;;
66874;SDS011;53784;52.630;4.896;2023-03-31T07:38:08;6.05;;;2.42;;
66874;SDS011;53784;52.630;4.896;2023-03-31T07:40:33;5.90;;;2.53;;
66874;SDS011;53784;52.630;4.896;2023-03-31T07:42:58;7.13;;;2.63;;
66874;SDS011;53784;52.630;4.896;2023-03-31T07:45:24;6.83;;;2.30;;
66874;SDS011;53784;52.630;4.896;2023-03-31T07:47:50;7.30;;;2.40;;
66874;SDS011;53784;52.630;4.896;2023-03-31T07:50:15;5.70;;;2.60;;
66874;SDS011;53784;52.630;4.896;2023-03-31T07:52:40;8.60;;;2.40;;
66874;SDS011;53784;52.630;4.896;2023-03-31T07:55:06;8.85;;;2.72;;
66874;SDS011;53784;52.630;4.896;2023-03-31T07:57:31;4.95;;;2.40;;
66874;SDS011;53784;52.630;4.896;2023-03-31T07:59:56;6.50;;;2.13;;
66874;SDS011;53784;52.630;4.896;2023-03-31T08:02:22;5.67;;;2.70;;
66874;SDS011;53784;52.630;4.896;2023-03-31T08:04:47;7.97;;;2.60;;
66874;SDS011;53784;52.630;4.896;2023-03-31T08:07:12;6.50;;;2.67;;
66874;SDS011;53784;52.630;4.896;2023-03-31T08:09:39;7.13;;;2.80;;
66874;SDS011;53784;52.630;4.896;2023-03-31T08:12:04;5.78;;;2.33;;
66874;SDS011;53784;52.630;4.896;2023-03-31T08:14:30;6.03;;;1.98;;
66874;SDS011;53784;52.630;4.896;2023-03-31T08:16:55;6.47;;;2.50;;
66874;SDS011;53784;52.630;4.896;2023-03-31T08:19:22;6.97;;;2.20;;
66874;SDS011;53784;52.630;4.896;2023-03-31T08:21:47;5.93;;;2.40;;
66874;SDS011;53784;52.630;4.896;2023-03-31T08:24:12;7.03;;;2.90;;
66874;SDS011;53784;52.630;4.896;2023-03-31T08:26:39;5.00;;;2.50;;
66874;SDS011;53784;52.630;4.896;2023-03-31T08:29:05;6.55;;;2.70;;
66874;SDS011;53784;52.630;4.896;2023-03-31T08:31:30;7.93;;;3.10;;
66874;SDS011;53784;52.630;4.896;2023-03-31T08:33:55;6.97;;;3.27;;
66874;SDS011;53784;52.630;4.896;2023-03-31T08:36:21;8.00;;;3.20;;
66874;SDS011;53784;52.630;4.896;2023-03-31T08:38:46;7.13;;;3.13;;
66874;SDS011;53784;52.630;4.896;2023-03-31T08:43:54;9.63;;;2.90;;
66874;SDS011;53784;52.630;4.896;2023-03-31T08:46:21;6.93;;;2.60;;
66874;SDS011;53784;52.630;4.896;2023-03-31T08:48:48;7.18;;;2.50;;
66874;SDS011;53784;52.630;4.896;2023-03-31T08:51:17;5.00;;;2.10;;
66874;SDS011;53784;52.630;4.896;2023-03-31T08:54:09;5.18;;;2.13;;
66874;SDS011;53784;52.630;4.896;2023-03-31T08:56:35;8.93;;;2.45;;
66874;SDS011;53784;52.630;4.896;2023-03-31T08:59:03;6.32;;;2.50;;
66874;SDS011;53784;52.630;4.896;2023-03-31T09:09:03;8.38;;;2.40;;
66874;SDS011;53784;52.630;4.896;2023-03-31T09:11:35;5.80;;;1.98;;
66874;SDS011;53784;52.630;4.896;2023-03-31T09:17:28;7.10;;;2.00;;
66874;SDS011;53784;52.630;4.896;2023-03-31T09:19:36;7.78;;;1.95;;
66874;SDS011;53784;52.630;4.896;2023-03-31T09:22:03;6.70;;;1.60;;
66874;SDS011;53784;52.630;4.896;2023-03-31T09:24:31;7.28;;;2.10;;
66874;SDS011;53784;52.630;4.896;2023-03-31T09:27:00;10.20;;;2.10;;
66874;SDS011;53784;52.630;4.896;2023-03-31T09:29:30;8.35;;;2.28;;
66874;SDS011;53784;52.630;4.896;2023-03-31T09:32:15;8.73;;;2.10;;
66874;SDS011;53784;52.630;4.896;2023-03-31T09:34:41;10.27;;;2.17;;
66874;SDS011;53784;52.630;4.896;2023-03-31T09:37:08;6.50;;;2.05;;
66874;SDS011;53784;52.630;4.896;2023-03-31T09:39:33;7.85;;;2.47;;
66874;SDS011;53784;52.630;4.896;2023-03-31T09:41:58;8.10;;;2.17;;
66874;SDS011;53784;52.630;4.896;2023-03-31T09:44:25;10.02;;;2.33;;
66874;SDS011;53784;52.630;4.896;2023-03-31T09:46:52;11.65;;;2.65;;
66874;SDS011;53784;52.630;4.896;2023-03-31T09:49:18;8.95;;;2.47;;
66874;SDS011;53784;52.630;4.896;2023-03-31T09:51:45;8.75;;;2.80;;
66874;SDS011;53784;52.630;4.896;2023-03-31T09:57:22;8.38;;;2.58;;
66874;SDS011;53784;52.630;4.896;2023-03-31T09:59:49;7.32;;;2.70;;
66874;SDS011;53784;52.630;4.896;2023-03-31T10:04:45;9.73;;;3.22;;
66874;SDS011;53784;52.630;4.896;2023-03-31T10:07:11;12.90;;;3.30;;
66874;SDS011;53784;52.630;4.896;2023-03-31T10:09:36;10.82;;;3.25;;
66874;SDS011;53784;52.630;4.896;2023-03-31T10:12:06;7.40;;;2.92;;
66874;SDS011;53784;52.630;4.896;2023-03-31T10:14:45;9.68;;;3.00;;
66874;SDS011;53784;52.630;4.896;2023-03-31T10:17:14;10.48;;;3.00;;
66874;SDS011;53784;52.630;4.896;2023-03-31T10:19:42;10.10;;;2.97;;
66874;SDS011;53784;52.630;4.896;2023-03-31T10:22:15;9.15;;;2.92;;
66874;SDS011;53784;52.630;4.896;2023-03-31T10:24:41;8.77;;;2.50;;
66874;SDS011;53784;52.630;4.896;2023-03-31T10:32:04;9.25;;;2.30;;
66874;SDS011;53784;52.630;4.896;2023-03-31T10:34:33;5.85;;;1.92;;
66874;SDS011;53784;52.630;4.896;2023-03-31T10:36:58;9.50;;;2.17;;
66874;SDS011;53784;52.630;4.896;2023-03-31T10:39:27;6.72;;;1.95;;
66874;SDS011;53784;52.630;4.896;2023-03-31T10:41:53;7.20;;;2.10;;
66874;SDS011;53784;52.630;4.896;2023-03-31T10:44:29;7.63;;;1.90;;
66874;SDS011;53784;52.630;4.896;2023-03-31T10:46:54;7.03;;;2.00;;
66874;SDS011;53784;52.630;4.896;2023-03-31T10:51:51;8.60;;;2.20;;
66874;SDS011;53784;52.630;4.896;2023-03-31T10:54:17;7.05;;;2.80;;
66874;SDS011;53784;52.630;4.896;2023-03-31T10:56:46;13.57;;;3.08;;
66874;SDS011;53784;52.630;4.896;2023-03-31T11:07:07;12.73;;;2.70;;
66874;SDS011;53784;52.630;4.896;2023-03-31T11:12:22;12.82;;;3.08;;
66874;SDS011;53784;52.630;4.896;2023-03-31T11:14:49;13.45;;;2.78;;
66874;SDS011;53784;52.630;4.896;2023-03-31T11:20:27;11.73;;;2.88;;
66874;SDS011;53784;52.630;4.896;2023-03-31T11:23:02;9.82;;;2.42;;
66874;SDS011;53784;52.630;4.896;2023-03-31T11:33:16;8.93;;;2.50;;
66874;SDS011;53784;52.630;4.896;2023-03-31T11:41:02;9.90;;;1.92;;
66874;SDS011;53784;52.630;4.896;2023-03-31T11:43:35;8.13;;;2.08;;
66874;SDS011;53784;52.630;4.896;2023-03-31T11:46:06;5.63;;;1.35;;
66874;SDS011;53784;52.630;4.896;2023-03-31T11:48:37;6.80;;;1.38;;
66874;SDS011;53784;52.630;4.896;2023-03-31T11:53:32;6.38;;;1.60;;
66874;SDS011;53784;52.630;4.896;2023-03-31T11:55:59;5.68;;;1.60;;
66874;SDS011;53784;52.630;4.896;2023-03-31T11:58:32;6.90;;;1.85;;
66874;SDS011;53784;52.630;4.896;2023-03-31T12:01:02;7.18;;;1.80;;
66874;SDS011;53784;52.630;4.896;2023-03-31T12:06:09;8.10;;;1.85;;
66874;SDS011;53784;52.630;4.896;2023-03-31T12:08:42;9.02;;;2.28;;
66874;SDS011;53784;52.630;4.896;2023-03-31T12:11:15;8.32;;;2.13;;
66874;SDS011;53784;52.630;4.896;2023-03-31T12:13:54;8.43;;;2.05;;
66874;SDS011;53784;52.630;4.896;2023-03-31T12:16:22;6.07;;;2.00;;
66874;SDS011;53784;52.630;4.896;2023-03-31T12:19:10;11.32;;;2.20;;
66874;SDS011;53784;52.630;4.896;2023-03-31T12:21:38;7.68;;;2.30;;
66874;SDS011;53784;52.630;4.896;2023-03-31T12:24:04;8.65;;;2.30;;
66874;SDS011;53784;52.630;4.896;2023-03-31T12:26:34;7.68;;;1.73;;
66874;SDS011;53784;52.630;4.896;2023-03-31T12:29:21;5.95;;;1.90;;
66874;SDS011;53784;52.630;4.896;2023-03-31T12:31:47;9.70;;;2.28;;
66874;SDS011;53784;52.630;4.896;2023-03-31T12:34:14;9.30;;;2.17;;
66874;SDS011;53784;52.630;4.896;2023-03-31T12:53:07;6.45;;;1.52;;
66874;SDS011;53784;52.630;4.896;2023-03-31T12:57:45;6.80;;;1.90;;
66874;SDS011;53784;52.630;4.896;2023-03-31T13:00:18;7.40;;;1.73;;
66874;SDS011;53784;52.630;4.896;2023-03-31T13:02:45;6.80;;;1.70;;
66874;SDS011;53784;52.630;4.896;2023-03-31T13:07:56;8.15;;;1.73;;
66874;SDS011;53784;52.630;4.896;2023-03-31T13:10:23;5.95;;;1.70;;
66874;SDS011;53784;52.630;4.896;2023-03-31T13:15:33;5.57;;;1.50;;
66874;SDS011;53784;52.630;4.896;2023-03-31T13:17:59;4.35;;;1.25;;
66874;SDS011;53784;52.630;4.896;2023-03-31T13:20:35;4.65;;;1.35;;
66874;SDS011;53784;52.630;4.896;2023-03-31T13:23:03;6.30;;;1.40;;
66874;SDS011;53784;52.630;4.896;2023-03-31T13:27:54;6.10;;;1.60;;
66874;SDS011;53784;52.630;4.896;2023-03-31T13:33:10;5.55;;;1.67;;
66874;SDS011;53784;52.630;4.896;2023-03-31T13:35:37;6.25;;;1.90;;
66874;SDS011;53784;52.630;4.896;2023-03-31T13:38:13;5.43;;;1.58;;
66874;SDS011;53784;52.630;4.896;2023-03-31T13:40:49;7.38;;;1.80;;
66874;SDS011;53784;52.630;4.896;2023-03-31T13:43:29;5.75;;;1.88;;
66874;SDS011;53784;52.630;4.896;2023-03-31T13:48:43;6.25;;;2.08;;
66874;SDS011;53784;52.630;4.896;2023-03-31T13:54:13;9.77;;;2.53;;
66874;SDS011;53784;52.630;4.896;2023-03-31T14:04:52;7.32;;;2.25;;
66874;SDS011;53784;52.630;4.896;2023-03-31T14:07:21;4.85;;;1.75;;
66874;SDS011;53784;52.630;4.896;2023-03-31T14:09:51;5.30;;;2.10;;
66874;SDS011;53784;52.630;4.896;2023-03-31T14:12:31;4.10;;;2.15;;
66874;SDS011;53784;52.630;4.896;2023-03-31T14:14:56;5.63;;;2.42;;
66874;SDS011;53784;52.630;4.896;2023-03-31T14:17:26;6.40;;;2.70;;
66874;SDS011;53784;52.630;4.896;2023-03-31T14:22:46;5.07;;;1.73;;
66874;SDS011;53784;52.630;4.896;2023-03-31T14:27:59;4.43;;;1.70;;
66874;SDS011;53784;52.630;4.896;2023-03-31T14:35:59;3.83;;;1.48;;
66874;SDS011;53784;52.630;4.896;2023-03-31T14:38:26;7.32;;;1.70;;
66874;SDS011;53784;52.630;4.896;2023-03-31T14:40:52;6.93;;;1.90;;
66874;SDS011;53784;52.630;4.896;2023-03-31T14:43:21;5.60;;;1.60;;
66874;SDS011;53784;52.630;4.896;2023-03-31T14:45:47;3.60;;;1.60;;
66874;SDS011;53784;52.630;4.896;2023-03-31T14:48:17;5.13;;;1.70;;
66874;SDS011;53784;52.630;4.896;2023-03-31T14:50:43;5.53;;;1.85;;
66874;SDS011;53784;52.630;4.896;2023-03-31T14:53:16;4.53;;;1.90;;
66874;SDS011;53784;52.630;4.896;2023-03-31T14:55:42;4.22;;;1.95;;
66874;SDS011;53784;52.630;4.896;2023-03-31T14:58:07;5.13;;;2.08;;
66874;SDS011;53784;52.630;4.896;2023-03-31T15:00:34;6.80;;;2.42;;
66874;SDS011;53784;52.630;4.896;2023-03-31T15:03:00;5.55;;;2.70;;
66874;SDS011;53784;52.630;4.896;2023-03-31T15:05:34;4.90;;;2.45;;
66874;SDS011;53784;52.630;4.896;2023-03-31T15:08:04;4.18;;;2.20;;
66874;SDS011;53784;52.630;4.896;2023-03-31T15:10:39;6.85;;;2.15;;
66874;SDS011;53784;52.630;4.896;2023-03-31T15:13:10;3.78;;;2.00;;
66874;SDS011;53784;52.630;4.896;2023-03-31T15:15:36;6.47;;;2.20;;
66874;SDS011;53784;52.630;4.896;2023-03-31T15:18:02;4.43;;;1.90;;
66874;SDS011;53784;52.630;4.896;2023-03-31T15:20:34;5.05;;;2.53;;
66874;SDS011;53784;52.630;4.896;2023-03-31T15:22:59;5.25;;;2.65;;
66874;SDS011;53784;52.630;4.896;2023-03-31T15:25:31;4.53;;;2.63;;
66874;SDS011;53784;52.630;4.896;2023-03-31T15:28:03;4.60;;;2.80;;
66874;SDS011;53784;52.630;4.896;2023-03-31T15:30:29;5.82;;;2.60;;
66874;SDS011;53784;52.630;4.896;2023-03-31T15:32:55;4.68;;;2.30;;
66874;SDS011;53784;52.630;4.896;2023-03-31T15:35:30;6.43;;;2.75;;
66874;SDS011;53784;52.630;4.896;2023-03-31T15:37:56;6.88;;;2.58;;
66874;SDS011;53784;52.630;4.896;2023-03-31T15:40:24;5.75;;;2.88;;
66874;SDS011;53784;52.630;4.896;2023-03-31T15:42:54;5.88;;;2.42;;
66874;SDS011;53784;52.630;4.896;2023-03-31T15:47:54;4.82;;;2.20;;
66874;SDS011;53784;52.630;4.896;2023-03-31T15:50:20;6.50;;;2.28;;
66874;SDS011;53784;52.630;4.896;2023-03-31T15:52:50;6.78;;;2.63;;
66874;SDS011;53784;52.630;4.896;2023-03-31T15:55:23;8.02;;;2.28;;
66874;SDS011;53784;52.630;4.896;2023-03-31T15:57:49;6.32;;;1.98;;
66874;SDS011;53784;52.630;4.896;2023-03-31T16:02:58;5.45;;;2.20;;
66874;SDS011;53784;52.630;4.896;2023-03-31T16:10:21;5.40;;;2.67;;
66874;SDS011;53784;52.630;4.896;2023-03-31T16:12:57;6.18;;;2.60;;
66874;SDS011;53784;52.630;4.896;2023-03-31T16:15:30;5.32;;;2.35;;
66874;SDS011;53784;52.630;4.896;2023-03-31T16:17:57;4.90;;;1.98;;
66874;SDS011;53784;52.630;4.896;2023-03-31T16:20:28;6.53;;;2.00;;
66874;SDS011;53784;52.630;4.896;2023-03-31T16:22:56;4.50;;;1.90;;
66874;SDS011;53784;52.630;4.896;2023-03-31T16:25:25;4.28;;;1.63;;
66874;SDS011;53784;52.630;4.896;2023-03-31T16:28:00;3.88;;;1.70;;
66874;SDS011;53784;52.630;4.896;2023-03-31T16:33:14;5.80;;;1.70;;
66874;SDS011;53784;52.630;4.896;2023-03-31T16:35:55;4.43;;;1.80;;
66874;SDS011;53784;52.630;4.896;2023-03-31T16:38:22;4.63;;;2.10;;
66874;SDS011;53784;52.630;4.896;2023-03-31T16:40:51;4.38;;;1.60;;
66874;SDS011;53784;52.630;4.896;2023-03-31T16:45:49;4.88;;;1.70;;
66874;SDS011;53784;52.630;4.896;2023-03-31T16:48:15;3.60;;;1.55;;
66874;SDS011;53784;52.630;4.896;2023-03-31T16:50:41;6.28;;;1.80;;
66874;SDS011;53784;52.630;4.896;2023-03-31T16:53:06;5.25;;;1.70;;
66874;SDS011;53784;52.630;4.896;2023-03-31T16:55:32;7.10;;;1.92;;
66874;SDS011;53784;52.630;4.896;2023-03-31T16:57:58;4.63;;;1.80;;
66874;SDS011;53784;52.630;4.896;2023-03-31T17:00:28;6.80;;;1.92;;
66874;SDS011;53784;52.630;4.896;2023-03-31T17:02:54;5.00;;;1.92;;
66874;SDS011;53784;52.630;4.896;2023-03-31T17:05:19;5.43;;;1.90;;
66874;SDS011;53784;52.630;4.896;2023-03-31T17:07:45;3.88;;;1.58;;
66874;SDS011;53784;52.630;4.896;2023-03-31T17:10:10;6.05;;;2.20;;
66874;SDS011;53784;52.630;4.896;2023-03-31T17:12:36;3.83;;;1.70;;
66874;SDS011;53784;52.630;4.896;2023-03-31T17:15:01;4.85;;;2.10;;
66874;SDS011;53784;52.630;4.896;2023-03-31T17:17:27;4.30;;;1.85;;
66874;SDS011;53784;52.630;4.896;2023-03-31T17:19:53;5.03;;;1.85;;
66874;SDS011;53784;52.630;4.896;2023-03-31T17:22:18;5.67;;;1.93;;
66874;SDS011;53784;52.630;4.896;2023-03-31T17:24:43;4.27;;;2.03;;
66874;SDS011;53784;52.630;4.896;2023-03-31T17:27:12;4.72;;;2.22;;
66874;SDS011;53784;52.630;4.896;2023-03-31T17:29:37;5.00;;;2.20;;
66874;SDS011;53784;52.630;4.896;2023-03-31T17:32:02;4.97;;;2.27;;
66874;SDS011;53784;52.630;4.896;2023-03-31T17:34:28;3.97;;;2.10;;
66874;SDS011;53784;52.630;4.896;2023-03-31T17:36:53;4.28;;;2.63;;
66874;SDS011;53784;52.630;4.896;2023-03-31T17:39:19;6.22;;;2.88;;
66874;SDS011;53784;52.630;4.896;2023-03-31T17:41:44;5.47;;;2.80;;